createdAt,value
2018-03-15T00:00:35.137Z,0
2018-03-15T00:01:14.148Z,0
2018-03-15T00:01:54.571Z,0
2018-03-15T00:02:34.959Z,0
2018-03-15T00:03:15.593Z,0
2018-03-15T00:03:55.965Z,0
2018-03-15T00:04:36.366Z,0
2018-03-15T00:05:16.759Z,0
2018-03-15T00:05:57.434Z,0
2018-03-15T00:06:37.620Z,0
2018-03-15T00:07:18.037Z,0
2018-03-15T00:07:58.430Z,0
2018-03-15T00:08:38.913Z,0
2018-03-15T00:09:19.222Z,0
2018-03-15T00:09:59.639Z,0
2018-03-15T00:10:40.069Z,0
2018-03-15T00:11:20.462Z,0
2018-03-15T00:12:01.428Z,0
2018-03-15T00:12:41.792Z,0
2018-03-15T00:13:22.242Z,0
2018-03-15T00:14:03.549Z,0
2018-03-15T00:16:23.455Z,0
2018-03-15T00:17:03.786Z,0
2018-03-15T00:17:44.295Z,0
2018-03-15T00:18:24.611Z,0
2018-03-15T00:19:05.043Z,0
2018-03-15T00:19:45.442Z,0
2018-03-15T00:20:26.638Z,0
2018-03-15T00:21:07.662Z,0
2018-03-15T00:21:47.990Z,0
2018-03-15T00:22:28.391Z,0
2018-03-15T00:23:09.598Z,0
2018-03-15T00:23:49.965Z,0
2018-03-15T00:24:30.458Z,0
2018-03-15T00:25:10.796Z,0
2018-03-15T00:25:51.199Z,0
2018-03-15T00:26:31.644Z,0
2018-03-15T00:27:12.693Z,0
2018-03-15T00:27:53.174Z,0
2018-03-15T00:28:33.897Z,0
2018-03-15T00:29:14.170Z,0
2018-03-15T00:29:54.582Z,0
2018-03-15T00:30:35.033Z,0
2018-03-15T00:31:15.400Z,0
2018-03-15T00:31:56.021Z,0
2018-03-15T00:32:36.383Z,0
2018-03-15T00:33:16.744Z,0
2018-03-15T00:33:57.141Z,0
2018-03-15T00:34:38.171Z,0
2018-03-15T00:35:18.614Z,0
2018-03-15T00:35:59.081Z,0
2018-03-15T00:36:39.767Z,0
2018-03-15T00:37:20.163Z,0
2018-03-15T00:38:00.686Z,0
2018-03-15T00:38:41.095Z,0
2018-03-15T00:39:21.551Z,0
2018-03-15T00:40:01.913Z,0
2018-03-15T00:40:42.340Z,0
2018-03-15T00:41:22.788Z,0
2018-03-15T00:42:04.115Z,0
2018-03-15T00:42:44.536Z,0
2018-03-15T00:43:26.148Z,0
2018-03-15T00:44:06.404Z,0
2018-03-15T00:44:47.029Z,0
2018-03-15T00:45:28.053Z,0
2018-03-15T00:46:08.476Z,0
2018-03-15T00:46:49.064Z,0
2018-03-15T00:47:29.265Z,0
2018-03-15T00:48:10.031Z,0
2018-03-15T00:48:50.680Z,0
2018-03-15T00:49:30.959Z,0
2018-03-15T00:50:11.306Z,0
2018-03-15T00:50:52.322Z,0
2018-03-15T00:51:32.655Z,0
2018-03-15T00:52:13.615Z,0
2018-03-15T00:52:53.562Z,0
2018-03-15T00:53:33.976Z,0
2018-03-15T00:54:14.508Z,0
2018-03-15T00:54:55.294Z,0
2018-03-15T00:55:35.774Z,0
2018-03-15T00:56:16.067Z,0
2018-03-15T00:56:56.825Z,0
2018-03-15T00:57:37.247Z,0
2018-03-15T00:58:17.656Z,0
2018-03-15T00:58:58.473Z,0
2018-03-15T00:59:38.740Z,0
2018-03-15T01:00:19.611Z,0
2018-03-15T01:01:00.271Z,0
2018-03-15T01:01:40.923Z,0
2018-03-15T01:02:21.344Z,0
2018-03-15T01:03:01.849Z,0
2018-03-15T01:03:42.395Z,0
2018-03-15T01:04:22.871Z,0
2018-03-15T01:05:03.420Z,0
2018-03-15T01:05:43.989Z,0
2018-03-15T01:06:24.548Z,0
2018-03-15T01:07:04.936Z,0
2018-03-15T01:07:45.462Z,0
2018-03-15T01:08:25.864Z,0
2018-03-15T01:09:07.004Z,0
2018-03-15T01:09:46.825Z,0
2018-03-15T01:10:27.183Z,0
2018-03-15T01:11:07.619Z,0
2018-03-15T01:11:48.033Z,0
2018-03-15T01:12:28.410Z,0
2018-03-15T01:13:09.050Z,0
2018-03-15T01:16:26.849Z,0
2018-03-15T01:17:07.056Z,0
2018-03-15T01:17:47.535Z,0
2018-03-15T01:18:27.886Z,0
2018-03-15T01:19:08.613Z,0
2018-03-15T01:19:49.190Z,0
2018-03-15T01:20:29.671Z,0
2018-03-15T01:21:10.046Z,0
2018-03-15T01:21:50.441Z,0
2018-03-15T01:22:31.004Z,0
2018-03-15T01:23:11.290Z,0
2018-03-15T01:23:51.646Z,0
2018-03-15T01:24:32.239Z,0
2018-03-15T01:25:12.619Z,0
2018-03-15T01:25:53.016Z,0
2018-03-15T01:26:33.413Z,0
2018-03-15T01:27:14.044Z,0
2018-03-15T01:27:54.368Z,0
2018-03-15T01:28:34.833Z,0
2018-03-15T01:29:15.375Z,0
2018-03-15T01:29:56.082Z,0
2018-03-15T01:30:36.467Z,0
2018-03-15T01:31:16.861Z,0
2018-03-15T01:31:57.552Z,0
2018-03-15T01:32:38.088Z,0
2018-03-15T01:34:50.993Z,0
2018-03-15T01:35:31.378Z,0
2018-03-15T01:36:11.787Z,0
2018-03-15T01:36:52.184Z,0
2018-03-15T01:37:32.622Z,0
2018-03-15T01:38:12.969Z,0
2018-03-15T01:38:53.473Z,0
2018-03-15T01:39:33.847Z,0
2018-03-15T01:40:14.210Z,0
2018-03-15T01:40:54.578Z,0
2018-03-15T01:41:34.972Z,0
2018-03-15T01:42:15.348Z,0
2018-03-15T01:42:55.804Z,0
2018-03-15T01:43:36.169Z,0
2018-03-15T01:44:16.548Z,0
2018-03-15T01:44:56.923Z,0
2018-03-15T01:45:37.336Z,0
2018-03-15T01:46:17.726Z,0
2018-03-15T01:46:58.119Z,0
2018-03-15T01:47:38.487Z,0
2018-03-15T01:48:18.853Z,0
2018-03-15T01:48:59.251Z,0
2018-03-15T01:49:39.694Z,0
2018-03-15T01:50:20.130Z,0
2018-03-15T01:51:00.466Z,0
2018-03-15T01:51:40.908Z,0
2018-03-15T01:52:21.325Z,0
2018-03-15T01:53:01.724Z,0
2018-03-15T01:53:42.104Z,0
2018-03-15T01:54:22.517Z,0
2018-03-15T01:55:02.898Z,0
2018-03-15T01:55:43.268Z,0
2018-03-15T01:56:23.694Z,0
2018-03-15T01:57:04.083Z,0
2018-03-15T01:57:44.432Z,0
2018-03-15T01:58:24.894Z,0
2018-03-15T01:59:05.257Z,0
2018-03-15T01:59:45.634Z,0
2018-03-15T02:00:26.022Z,0
2018-03-15T02:01:06.452Z,0
2018-03-15T02:01:46.816Z,0
2018-03-15T02:02:27.240Z,0
2018-03-15T02:03:07.615Z,0
2018-03-15T02:03:48.011Z,0
2018-03-15T02:04:28.413Z,0
2018-03-15T02:05:08.800Z,0
2018-03-15T02:05:49.186Z,0
2018-03-15T02:06:29.608Z,0
2018-03-15T02:07:09.981Z,0
2018-03-15T02:07:50.348Z,0
2018-03-15T02:08:30.731Z,0
2018-03-15T02:09:11.108Z,0
2018-03-15T02:09:51.446Z,0
2018-03-15T02:10:31.909Z,0
2018-03-15T02:11:12.264Z,0
2018-03-15T02:11:52.716Z,0
2018-03-15T02:12:33.116Z,0
2018-03-15T02:13:13.493Z,0
2018-03-15T02:13:53.913Z,0
2018-03-15T02:14:34.285Z,0
2018-03-15T02:15:14.675Z,0
2018-03-15T02:15:55.100Z,0
2018-03-15T02:16:35.456Z,0
2018-03-15T02:17:15.831Z,0
2018-03-15T02:17:56.249Z,0
2018-03-15T02:18:36.644Z,0
2018-03-15T02:19:17.013Z,0
2018-03-15T02:19:57.440Z,0
2018-03-15T02:20:37.820Z,0
2018-03-15T02:21:18.176Z,0
2018-03-15T02:21:58.659Z,0
2018-03-15T02:22:39.024Z,0
2018-03-15T02:23:19.436Z,0
2018-03-15T02:23:59.806Z,0
2018-03-15T02:24:40.188Z,0
2018-03-15T02:25:20.584Z,0
2018-03-15T02:26:00.917Z,0
2018-03-15T02:26:41.317Z,0
2018-03-15T02:27:21.723Z,0
2018-03-15T02:28:02.130Z,0
2018-03-15T02:28:42.544Z,0
2018-03-15T02:29:22.957Z,0
2018-03-15T02:30:03.306Z,0
2018-03-15T02:30:43.672Z,0
2018-03-15T02:31:24.074Z,0
2018-03-15T02:32:04.444Z,0
2018-03-15T02:32:44.880Z,0
2018-03-15T02:33:25.326Z,0
2018-03-15T02:35:45.116Z,0
2018-03-15T02:36:25.534Z,0
2018-03-15T02:37:05.961Z,0
2018-03-15T02:37:47.108Z,0
2018-03-15T02:38:28.025Z,0
2018-03-15T02:39:09.271Z,0
2018-03-15T02:39:50.358Z,0
2018-03-15T02:40:31.550Z,0
2018-03-15T02:41:12.598Z,0
2018-03-15T02:41:55.519Z,0
2018-03-15T02:42:51.743Z,0
2018-03-15T02:43:34.549Z,0
2018-03-15T02:44:17.200Z,0
2018-03-15T02:44:58.470Z,0
2018-03-15T02:45:39.166Z,0
2018-03-15T02:46:19.592Z,0
2018-03-15T02:47:00.965Z,0
2018-03-15T02:47:43.125Z,0
2018-03-15T02:48:23.590Z,0
2018-03-15T02:49:04.896Z,0
2018-03-15T02:49:47.507Z,0
2018-03-15T02:50:28.048Z,0
2018-03-15T02:51:09.624Z,0
2018-03-15T02:51:50.674Z,0
2018-03-15T02:52:32.767Z,0
2018-03-15T02:53:14.644Z,0
2018-03-15T02:53:55.168Z,0
2018-03-15T02:54:37.659Z,0
2018-03-15T02:55:20.602Z,0
2018-03-15T02:56:03.525Z,0
2018-03-15T02:56:46.125Z,0
2018-03-15T02:57:28.370Z,0
2018-03-15T02:58:09.840Z,0
2018-03-15T03:04:52.358Z,0
2018-03-15T03:05:32.924Z,0
2018-03-15T03:06:13.382Z,0
2018-03-15T03:06:54.390Z,0
2018-03-15T03:07:36.485Z,0
2018-03-15T03:08:17.021Z,0
2018-03-15T03:08:57.980Z,0
2018-03-15T03:09:38.447Z,0
2018-03-15T03:10:19.319Z,0
2018-03-15T03:11:00.854Z,0
2018-03-15T03:11:41.419Z,0
2018-03-15T03:12:21.825Z,0
2018-03-15T03:13:02.539Z,0
2018-03-15T03:13:43.000Z,0
2018-03-15T03:14:23.591Z,0
2018-03-15T03:15:04.842Z,0
2018-03-15T03:15:45.897Z,0
2018-03-15T03:16:26.725Z,0
2018-03-15T03:17:07.214Z,0
2018-03-15T03:17:47.735Z,0
2018-03-15T03:18:28.304Z,0
2018-03-15T03:19:09.299Z,0
2018-03-15T03:19:49.917Z,0
2018-03-15T03:20:30.440Z,0
2018-03-15T03:21:11.174Z,0
2018-03-15T03:21:52.239Z,0
2018-03-15T03:22:33.846Z,0
2018-03-15T03:23:14.883Z,0
2018-03-15T03:23:55.353Z,0
2018-03-15T03:24:37.059Z,0
2018-03-15T03:25:17.465Z,0
2018-03-15T03:25:58.173Z,0
2018-03-15T03:26:38.631Z,0
2018-03-15T03:27:19.570Z,0
2018-03-15T03:28:00.475Z,0
2018-03-15T03:28:41.178Z,0
2018-03-15T03:29:22.071Z,0
2018-03-15T03:30:02.763Z,0
2018-03-15T03:30:43.720Z,0
2018-03-15T03:31:24.873Z,0
2018-03-15T03:32:05.383Z,0
2018-03-15T03:32:46.187Z,0
2018-03-15T03:33:26.789Z,0
2018-03-15T03:34:07.329Z,0
2018-03-15T03:34:49.879Z,0
2018-03-15T03:35:30.822Z,0
2018-03-15T03:36:10.933Z,0
2018-03-15T03:36:53.941Z,0
2018-03-15T03:43:39.034Z,0
2018-03-15T03:44:19.120Z,0
2018-03-15T03:44:59.616Z,0
2018-03-15T03:45:40.190Z,0
2018-03-15T03:46:20.499Z,0
2018-03-15T03:47:00.881Z,0
2018-03-15T03:50:02.431Z,0
2018-03-15T03:50:42.613Z,0
2018-03-15T03:51:23.137Z,0
2018-03-15T03:52:04.350Z,0
2018-03-15T03:52:45.211Z,0
2018-03-15T03:53:26.228Z,0
2018-03-15T03:54:06.742Z,0
2018-03-15T03:54:47.176Z,0
2018-03-15T03:55:27.635Z,0
2018-03-15T03:56:07.970Z,0
2018-03-15T03:56:48.468Z,0
2018-03-15T03:57:29.156Z,0
2018-03-15T03:58:09.625Z,0
2018-03-15T03:58:50.004Z,0
2018-03-15T03:59:30.447Z,0
2018-03-15T04:00:10.991Z,0
2018-03-15T04:00:51.362Z,0
2018-03-15T04:01:32.246Z,0
2018-03-15T04:02:12.624Z,0
2018-03-15T04:02:53.075Z,0
2018-03-15T04:03:33.616Z,0
2018-03-15T04:04:14.005Z,0
2018-03-15T04:04:54.362Z,0
2018-03-15T04:05:34.772Z,0
2018-03-15T04:06:15.231Z,0
2018-03-15T04:06:55.569Z,0
2018-03-15T04:07:36.211Z,0
2018-03-15T04:50:09.037Z,0
2018-03-15T04:50:48.409Z,0
2018-03-15T04:51:28.878Z,0
2018-03-15T04:52:09.294Z,0
2018-03-15T04:52:50.315Z,0
2018-03-15T04:53:30.314Z,0
2018-03-15T04:54:10.864Z,0
2018-03-15T04:54:51.411Z,0
2018-03-15T04:55:32.313Z,0
2018-03-15T04:56:12.670Z,0
2018-03-15T04:56:53.077Z,0
2018-03-15T04:59:27.307Z,0
2018-03-15T05:00:07.716Z,0
2018-03-15T05:00:48.074Z,0
2018-03-15T05:01:28.500Z,0
2018-03-15T05:02:08.886Z,0
2018-03-15T05:02:49.292Z,0
2018-03-15T05:03:29.664Z,0
2018-03-15T05:04:10.082Z,0
2018-03-15T05:04:50.435Z,0
2018-03-15T05:05:30.950Z,0
2018-03-15T05:06:11.265Z,0
2018-03-15T05:06:51.780Z,0
2018-03-15T05:07:32.109Z,0
2018-03-15T05:08:12.587Z,0
2018-03-15T05:08:52.936Z,0
2018-03-15T05:09:33.424Z,0
2018-03-15T05:10:13.848Z,0
2018-03-15T05:10:54.256Z,0
2018-03-15T05:11:34.619Z,0
2018-03-15T05:12:15.002Z,0
2018-03-15T05:12:55.450Z,4
2018-03-15T05:13:35.880Z,0
2018-03-15T05:14:16.229Z,0
2018-03-15T05:14:56.643Z,0
2018-03-15T05:15:37.049Z,0
2018-03-15T05:16:17.451Z,4
2018-03-15T05:16:57.788Z,0
2018-03-15T05:17:38.200Z,0
2018-03-15T05:18:18.616Z,4
2018-03-15T05:18:58.986Z,4
2018-03-15T05:19:39.357Z,0
2018-03-15T05:20:19.794Z,4
2018-03-15T05:21:00.196Z,0
2018-03-15T05:21:40.583Z,4
2018-03-15T05:22:20.932Z,4
2018-03-15T05:23:01.352Z,4
2018-03-15T05:23:41.796Z,4
2018-03-15T05:24:22.155Z,4
2018-03-15T05:25:02.681Z,4
2018-03-15T05:25:43.080Z,4
2018-03-15T05:26:23.546Z,4
2018-03-15T05:27:03.914Z,4
2018-03-15T05:27:44.306Z,4
2018-03-15T05:28:24.713Z,8
2018-03-15T05:29:05.099Z,8
2018-03-15T05:29:45.585Z,12
2018-03-15T05:30:25.954Z,8
2018-03-15T05:31:06.338Z,12
2018-03-15T05:31:46.765Z,12
2018-03-15T05:32:27.160Z,16
2018-03-15T05:33:07.528Z,16
2018-03-15T05:33:47.960Z,16
2018-03-15T05:34:28.380Z,20
2018-03-15T05:35:08.782Z,24
2018-03-15T05:35:49.207Z,28
2018-03-15T05:36:29.634Z,28
2018-03-15T05:37:09.973Z,32
2018-03-15T05:37:50.401Z,36
2018-03-15T05:38:30.773Z,40
2018-03-15T05:39:11.204Z,40
2018-03-15T05:39:51.551Z,48
2018-03-15T05:40:31.924Z,52
2018-03-15T05:41:12.384Z,56
2018-03-15T05:41:52.799Z,60
2018-03-15T05:42:33.132Z,68
2018-03-15T05:43:13.551Z,72
2018-03-15T05:43:53.955Z,76
2018-03-15T05:44:34.307Z,84
2018-03-15T05:45:14.763Z,88
2018-03-15T05:45:55.147Z,96
2018-03-15T05:46:35.620Z,104
2018-03-15T05:47:15.964Z,108
2018-03-15T05:47:56.408Z,112
2018-03-15T05:48:36.774Z,124
2018-03-15T05:49:17.218Z,128
2018-03-15T05:49:57.654Z,136
2018-03-15T05:50:38.017Z,140
2018-03-15T06:01:14.010Z,372
2018-03-15T06:01:54.412Z,408
2018-03-15T06:02:34.797Z,452
2018-03-15T06:03:15.179Z,488
2018-03-15T06:03:55.545Z,532
2018-03-15T06:04:35.924Z,584
2018-03-15T06:05:16.324Z,620
2018-03-15T06:05:56.736Z,668
2018-03-15T06:06:37.111Z,724
2018-03-15T06:07:17.514Z,772
2018-03-15T06:07:57.932Z,816
2018-03-15T06:08:38.314Z,872
2018-03-15T06:09:18.666Z,964
2018-03-15T06:09:59.096Z,1052
2018-03-15T06:10:39.524Z,1156
2018-03-15T06:11:19.908Z,1224
2018-03-15T06:12:00.276Z,1252
2018-03-15T06:12:40.709Z,1204
2018-03-15T06:13:21.152Z,1184
2018-03-15T06:14:01.534Z,1248
2018-03-15T06:14:41.940Z,1332
2018-03-15T06:15:22.310Z,1392
2018-03-15T06:16:02.764Z,1332
2018-03-15T06:16:43.119Z,1272
2018-03-15T06:18:43.110Z,1648
2018-03-15T06:19:23.508Z,1872
2018-03-15T06:20:04.010Z,2028
2018-03-15T06:20:44.293Z,2116
2018-03-15T06:22:57.221Z,2164
2018-03-15T06:23:37.591Z,2300
2018-03-15T06:24:18.023Z,2356
2018-03-15T06:24:58.378Z,2400
2018-03-15T06:25:38.774Z,2300
2018-03-15T06:26:19.132Z,1924
2018-03-15T06:26:59.583Z,1648
2018-03-15T06:27:39.926Z,1728
2018-03-15T06:28:20.336Z,1932
2018-03-15T06:29:00.764Z,1992
2018-03-15T06:29:41.162Z,2036
2018-03-15T06:30:21.572Z,2180
2018-03-15T06:31:01.959Z,2360
2018-03-15T06:31:42.504Z,2696
2018-03-15T06:32:22.813Z,3044
2018-03-15T06:33:03.247Z,3316
2018-03-15T06:33:43.648Z,3680
2018-03-15T06:34:25.342Z,4136
2018-03-15T06:35:05.768Z,4356
2018-03-15T06:35:46.187Z,4372
2018-03-15T06:36:26.602Z,4196
2018-03-15T06:37:07.016Z,3212
2018-03-15T06:37:47.470Z,2040
2018-03-15T06:38:27.920Z,1464
2018-03-15T06:39:08.324Z,1232
2018-03-15T06:39:48.769Z,1140
2018-03-15T06:40:29.377Z,1056
2018-03-15T06:41:09.764Z,1024
2018-03-15T06:41:50.288Z,1004
2018-03-15T06:42:30.713Z,984
2018-03-15T06:45:00.901Z,964
2018-03-15T06:45:41.940Z,964
2018-03-15T06:46:21.745Z,968
2018-03-15T06:47:02.196Z,980
2018-03-15T06:47:42.935Z,1008
2018-03-15T06:48:23.504Z,1032
2018-03-15T06:49:03.878Z,1068
2018-03-15T06:49:44.322Z,1144
2018-03-15T06:50:25.796Z,1276
2018-03-15T06:52:44.352Z,1960
2018-03-15T06:53:24.679Z,2196
2018-03-15T06:54:05.141Z,2556
2018-03-15T06:54:45.508Z,3116
2018-03-15T06:55:25.960Z,4048
2018-03-15T06:56:06.368Z,5520
2018-03-15T06:56:46.767Z,6576
2018-03-15T06:57:27.114Z,7436
2018-03-15T06:58:07.604Z,7940
2018-03-15T06:58:48.013Z,8484
2018-03-15T06:59:28.389Z,8844
2018-03-15T07:00:09.034Z,9004
2018-03-15T07:00:49.433Z,9016
2018-03-15T07:01:29.807Z,9104
2018-03-15T07:02:10.180Z,9288
2018-03-15T07:02:50.605Z,9400
2018-03-15T07:03:31.044Z,9392
2018-03-15T07:04:11.410Z,9412
2018-03-15T07:04:51.790Z,9280
2018-03-15T07:05:32.216Z,9148
2018-03-15T07:06:12.569Z,9080
2018-03-15T07:06:52.935Z,9296
2018-03-15T07:07:33.374Z,9420
2018-03-15T07:08:13.806Z,9552
2018-03-15T07:08:54.201Z,9544
2018-03-15T07:09:34.772Z,9312
2018-03-15T07:10:15.222Z,9052
2018-03-15T07:10:55.642Z,9512
2018-03-15T07:11:36.114Z,10332
2018-03-15T07:12:16.540Z,10812
2018-03-15T07:12:56.970Z,10744
2018-03-15T07:13:37.459Z,10304
2018-03-15T07:14:17.865Z,10080
2018-03-15T07:14:58.302Z,9704
2018-03-15T07:15:38.681Z,9876
2018-03-15T07:16:19.098Z,10080
2018-03-15T07:16:59.520Z,9624
2018-03-15T07:17:40.005Z,10220
2018-03-15T07:18:20.409Z,11164
2018-03-15T07:19:00.796Z,11580
2018-03-15T07:19:55.826Z,11072
2018-03-15T07:20:36.309Z,10776
2018-03-15T07:21:16.748Z,11228
2018-03-15T07:21:57.173Z,5492
2018-03-15T07:22:37.537Z,8228
2018-03-15T07:23:17.926Z,8276
2018-03-15T07:23:58.346Z,6876
2018-03-15T07:24:38.734Z,7324
2018-03-15T07:25:19.169Z,7148
2018-03-15T07:25:59.559Z,6716
2018-03-15T07:26:39.897Z,4828
2018-03-15T07:27:20.434Z,3328
2018-03-15T07:28:00.827Z,3600
2018-03-15T07:28:41.197Z,3484
2018-03-15T07:29:22.525Z,3808
2018-03-15T07:30:03.543Z,5032
2018-03-15T07:32:17.347Z,4844
2018-03-15T07:32:57.400Z,5044
2018-03-15T07:33:37.830Z,5160
2018-03-15T07:34:18.229Z,5344
2018-03-15T07:34:58.633Z,5440
2018-03-15T07:35:39.022Z,5036
2018-03-15T07:36:19.413Z,4400
2018-03-15T07:36:59.813Z,4420
2018-03-15T07:37:40.265Z,4376
2018-03-15T07:38:20.670Z,4224
2018-03-15T07:39:01.100Z,4188
2018-03-15T07:39:41.431Z,4188
2018-03-15T07:40:21.869Z,3992
2018-03-15T07:41:02.183Z,3948
2018-03-15T07:41:42.628Z,3916
2018-03-15T07:42:23.055Z,3884
2018-03-15T07:43:03.516Z,3764
2018-03-15T07:43:43.877Z,3716
2018-03-15T07:44:24.267Z,3788
2018-03-15T07:45:04.714Z,3832
2018-03-15T07:45:45.087Z,3828
2018-03-15T07:46:25.461Z,3704
2018-03-15T07:47:05.920Z,3652
2018-03-15T07:47:46.295Z,3612
2018-03-15T07:48:26.768Z,3524
2018-03-15T07:49:07.152Z,3692
2018-03-15T07:49:47.586Z,3876
2018-03-15T07:50:27.938Z,3920
2018-03-15T07:51:08.369Z,3892
2018-03-15T07:51:48.839Z,3864
2018-03-15T07:52:29.572Z,3888
2018-03-15T07:53:09.931Z,3768
2018-03-15T07:53:50.340Z,3848
2018-03-15T07:54:30.823Z,3876
2018-03-15T07:55:11.181Z,3852
2018-03-15T07:55:51.632Z,3756
2018-03-15T07:56:32.103Z,3700
2018-03-15T07:57:12.502Z,3616
2018-03-15T07:57:52.983Z,3560
2018-03-15T07:58:33.362Z,3496
2018-03-15T07:59:13.755Z,3428
2018-03-15T07:59:54.245Z,3244
2018-03-15T08:00:34.709Z,3136
2018-03-15T08:01:15.131Z,3052
2018-03-15T08:01:55.601Z,2988
2018-03-15T08:02:36.793Z,2944
2018-03-15T08:03:16.558Z,2896
2018-03-15T08:03:56.965Z,2868
2018-03-15T08:04:37.460Z,2824
2018-03-15T08:05:17.868Z,2836
2018-03-15T08:05:58.250Z,2812
2018-03-15T08:06:38.673Z,2828
2018-03-15T08:07:19.090Z,2824
2018-03-15T08:07:59.557Z,2808
2018-03-15T08:08:39.962Z,2836
2018-03-15T08:09:20.373Z,2812
2018-03-15T08:10:01.171Z,2820
2018-03-15T08:10:41.981Z,2824
2018-03-15T08:11:22.491Z,2852
2018-03-15T08:14:57.862Z,3060
2018-03-15T08:15:38.892Z,3084
2018-03-15T08:16:19.255Z,3104
2018-03-15T08:16:59.703Z,3104
2018-03-15T08:17:40.472Z,3112
2018-03-15T08:18:21.019Z,3108
2018-03-15T08:19:01.733Z,3116
2018-03-15T08:19:42.135Z,3056
2018-03-15T08:20:22.628Z,3136
2018-03-15T08:21:03.020Z,3144
2018-03-15T08:21:43.375Z,3140
2018-03-15T08:22:23.864Z,3184
2018-03-15T08:23:04.694Z,3156
2018-03-15T08:23:44.962Z,3164
2018-03-15T08:24:25.718Z,3144
2018-03-15T08:25:06.195Z,3124
2018-03-15T08:25:47.014Z,3144
2018-03-15T08:26:27.875Z,3108
2018-03-15T08:27:08.279Z,3088
2018-03-15T08:27:49.067Z,3076
2018-03-15T08:28:29.548Z,3060
2018-03-15T08:29:09.987Z,3040
2018-03-15T08:29:50.398Z,3020
2018-03-15T08:30:33.522Z,2972
2018-03-15T08:31:14.464Z,2952
2018-03-15T08:31:56.882Z,2892
2018-03-15T08:32:37.375Z,2868
2018-03-15T08:33:17.551Z,2844
2018-03-15T08:33:57.998Z,2792
2018-03-15T08:34:38.378Z,2760
2018-03-15T08:35:19.141Z,2744
2018-03-15T08:36:00.087Z,2700
2018-03-15T08:36:40.619Z,2672
2018-03-15T08:37:21.172Z,2676
2018-03-15T08:38:02.428Z,2644
2018-03-15T08:38:42.773Z,2636
2018-03-15T08:39:23.069Z,2644
2018-03-15T08:40:04.578Z,2636
2018-03-15T08:40:44.981Z,2580
2018-03-15T08:41:25.396Z,2620
2018-03-15T08:42:05.920Z,2612
2018-03-15T08:42:46.401Z,2620
2018-03-15T08:43:26.872Z,2620
2018-03-15T08:44:07.322Z,2616
2018-03-15T08:44:47.907Z,2648
2018-03-15T08:45:28.458Z,2660
2018-03-15T08:46:09.315Z,2672
2018-03-15T08:46:50.475Z,2672
2018-03-15T08:47:31.401Z,2668
2018-03-15T08:48:11.944Z,2628
2018-03-15T08:48:53.383Z,2632
2018-03-15T08:49:34.710Z,2616
2018-03-15T08:50:15.932Z,2636
2018-03-15T08:50:56.446Z,2624
2018-03-15T08:51:36.999Z,2636
2018-03-15T08:52:17.461Z,2648
2018-03-15T08:52:58.662Z,2672
2018-03-15T08:53:39.092Z,2680
2018-03-15T08:54:19.661Z,2696
2018-03-15T08:54:59.879Z,2720
2018-03-15T08:55:40.400Z,2688
2018-03-15T08:56:20.885Z,2728
2018-03-15T08:57:01.290Z,2740
2018-03-15T08:57:41.788Z,2720
2018-03-15T08:58:23.539Z,2744
2018-03-15T08:59:03.276Z,2752
2018-03-15T08:59:44.333Z,2780
2018-03-15T09:00:24.854Z,2808
2018-03-15T09:01:05.375Z,2804
2018-03-15T09:01:45.827Z,2800
2018-03-15T09:02:26.215Z,2812
2018-03-15T09:03:06.832Z,2828
2018-03-15T09:03:47.450Z,2836
2018-03-15T09:04:28.193Z,2848
2018-03-15T09:05:08.766Z,2936
2018-03-15T09:05:49.266Z,2872
2018-03-15T09:06:29.723Z,2884
2018-03-15T09:07:10.791Z,2904
2018-03-15T09:07:51.290Z,2880
2018-03-15T09:08:32.247Z,2856
2018-03-15T09:09:12.466Z,2832
2018-03-15T09:09:52.707Z,2836
2018-03-15T09:10:33.871Z,2828
2018-03-15T09:11:13.645Z,2828
2018-03-15T09:11:54.146Z,2832
2018-03-15T09:12:34.575Z,2804
2018-03-15T09:13:15.210Z,2808
2018-03-15T09:13:55.581Z,2800
2018-03-15T09:14:36.829Z,2788
2018-03-15T09:15:17.305Z,2776
2018-03-15T09:15:58.713Z,2748
2018-03-15T09:16:39.164Z,2712
2018-03-15T09:17:19.654Z,2656
2018-03-15T09:18:00.334Z,2604
2018-03-15T09:18:40.750Z,2564
2018-03-15T09:19:21.210Z,2532
2018-03-15T09:20:02.501Z,2492
2018-03-15T09:20:43.037Z,2480
2018-03-15T09:21:23.520Z,2480
2018-03-15T09:22:04.823Z,2496
2018-03-15T09:22:46.559Z,2512
2018-03-15T09:23:27.101Z,2476
2018-03-15T09:24:07.511Z,2476
2018-03-15T09:24:47.976Z,2476
2018-03-15T09:25:30.500Z,2496
2018-03-15T09:26:11.076Z,2500
2018-03-15T09:26:51.445Z,2508
2018-03-15T09:27:32.049Z,2492
2018-03-15T09:28:12.472Z,2488
2018-03-15T09:28:54.050Z,2488
2018-03-15T09:29:34.758Z,2472
2018-03-15T09:30:15.261Z,2460
2018-03-15T09:30:56.314Z,2484
2018-03-15T09:31:37.123Z,2452
2018-03-15T09:32:17.647Z,2452
2018-03-15T09:32:57.918Z,2424
2018-03-15T09:33:38.608Z,2408
2018-03-15T09:34:19.063Z,2448
2018-03-15T09:34:59.676Z,2440
2018-03-15T09:35:40.328Z,2440
2018-03-15T09:36:21.048Z,2420
2018-03-15T09:37:01.368Z,2428
2018-03-15T09:37:42.711Z,2380
2018-03-15T09:38:23.695Z,2280
2018-03-15T09:39:04.301Z,2360
2018-03-15T09:39:44.961Z,2384
2018-03-15T09:40:25.813Z,2348
2018-03-15T09:41:06.248Z,2316
2018-03-15T09:41:47.349Z,2256
2018-03-15T09:42:27.840Z,2304
2018-03-15T09:43:08.813Z,2312
2018-03-15T09:43:49.929Z,2360
2018-03-15T09:44:30.316Z,2376
2018-03-15T09:45:11.529Z,2328
2018-03-15T09:45:54.887Z,2356
2018-03-15T09:46:35.867Z,2376
2018-03-15T09:47:17.903Z,2384
2018-03-15T09:47:58.402Z,2400
2018-03-15T09:48:38.748Z,2384
2018-03-15T09:49:19.757Z,2360
2018-03-15T09:50:00.042Z,2344
2018-03-15T09:50:40.477Z,2348
2018-03-15T09:51:20.889Z,2340
2018-03-15T09:52:01.405Z,2360
2018-03-15T09:52:41.971Z,2344
2018-03-15T09:53:23.161Z,2384
2018-03-15T09:54:03.700Z,2408
2018-03-15T09:54:44.188Z,2368
2018-03-15T09:55:24.804Z,2368
2018-03-15T09:56:05.508Z,2324
2018-03-15T09:56:45.901Z,2316
2018-03-15T09:57:27.221Z,2328
2018-03-15T09:58:07.880Z,2340
2018-03-15T09:58:48.350Z,2316
2018-03-15T09:59:28.784Z,2288
2018-03-15T10:00:09.173Z,2292
2018-03-15T10:00:49.686Z,2296
2018-03-15T10:01:30.135Z,2280
2018-03-15T10:02:11.037Z,2260
2018-03-15T10:02:51.363Z,2260
2018-03-15T10:03:31.729Z,2276
2018-03-15T10:04:12.370Z,2276
2018-03-15T10:04:52.731Z,2260
2018-03-15T10:05:34.372Z,2288
2018-03-15T10:06:15.165Z,2364
2018-03-15T10:06:56.272Z,2344
2018-03-15T10:07:36.631Z,2356
2018-03-15T10:08:17.243Z,2352
2018-03-15T10:08:57.535Z,2368
2018-03-15T10:09:38.909Z,2372
2018-03-15T10:49:30.733Z,2184
2018-03-15T10:52:33.728Z,2188
2018-03-15T10:53:15.039Z,2180
2018-03-15T10:53:55.664Z,2180
2018-03-15T10:54:35.987Z,2172
2018-03-15T10:55:16.449Z,2176
2018-03-15T10:55:56.929Z,2168
2018-03-15T10:56:37.421Z,2172
2018-03-15T10:57:18.041Z,2180
2018-03-15T10:57:58.542Z,2176
2018-03-15T10:58:38.931Z,2176
2018-03-15T10:59:19.488Z,2188
2018-03-15T11:00:00.019Z,2180
2018-03-15T11:00:40.337Z,2192
2018-03-15T11:01:20.815Z,2204
2018-03-15T11:02:01.225Z,2212
2018-03-15T11:02:41.612Z,2244
2018-03-15T11:03:22.148Z,2244
2018-03-15T11:04:02.787Z,2244
2018-03-15T11:04:43.595Z,2252
2018-03-15T11:05:24.154Z,2260
2018-03-15T11:06:04.504Z,2264
2018-03-15T11:06:45.011Z,2260
2018-03-15T11:07:25.419Z,2244
2018-03-15T11:08:06.114Z,2252
2018-03-15T11:08:47.339Z,2236
2018-03-15T11:09:29.435Z,2228
2018-03-15T11:10:13.102Z,2228
2018-03-15T11:10:56.126Z,2228
2018-03-15T11:11:37.780Z,2240
2018-03-15T11:12:21.543Z,2252
2018-03-15T11:13:07.797Z,2288
2018-03-15T11:13:48.576Z,2292
2018-03-15T11:14:30.607Z,2312
2018-03-15T11:15:10.756Z,2316
2018-03-15T11:15:51.703Z,2316
2018-03-15T11:16:32.206Z,2324
2018-03-15T11:17:12.627Z,2332
2018-03-15T11:17:53.885Z,2328
2018-03-15T11:18:34.094Z,2328
2018-03-15T11:19:14.675Z,2324
2018-03-15T11:19:55.050Z,2328
2018-03-15T11:20:35.429Z,2328
2018-03-15T11:21:16.331Z,2344
2018-03-15T11:21:56.933Z,2348
2018-03-15T11:22:37.430Z,2340
2018-03-15T11:23:18.110Z,2340
2018-03-15T11:24:00.130Z,2328
2018-03-15T11:24:42.330Z,2324
2018-03-15T11:25:28.145Z,2332
2018-03-15T11:26:38.105Z,2368
2018-03-15T11:27:22.330Z,2356
2018-03-15T11:28:04.817Z,2336
2018-03-15T11:28:46.796Z,2332
2018-03-15T11:29:27.536Z,2324
2018-03-15T11:30:10.810Z,2308
2018-03-15T11:30:57.020Z,2296
2018-03-15T11:31:39.241Z,2288
2018-03-15T11:32:21.561Z,2280
2018-03-15T11:33:03.368Z,2272
2018-03-15T11:33:52.865Z,2260
2018-03-15T11:36:23.729Z,2180
2018-03-15T11:37:04.153Z,2156
2018-03-15T11:37:44.987Z,2144
2018-03-15T11:38:25.509Z,2140
2018-03-15T11:39:06.052Z,2144
2018-03-15T11:39:46.484Z,2148